sensor_id;sensor_type;location;lat;lon;timestamp;P1;durP1;ratioP1;P2;durP2;ratioP2
73729;SDS011;62036;48.128;16.458;2024-02-04T00:02:10;1.85;;;1.65;;
73729;SDS011;62036;48.128;16.458;2024-02-04T00:04:39;1.55;;;1.27;;
73729;SDS011;62036;48.128;16.458;2024-02-04T00:07:05;1.55;;;1.20;;
73729;SDS011;62036;48.128;16.458;2024-02-04T00:09:31;2.15;;;1.48;;
73729;SDS011;62036;48.128;16.458;2024-02-04T00:11:57;1.65;;;1.45;;
73729;SDS011;62036;48.128;16.458;2024-02-04T00:14:28;2.22;;;1.38;;
73729;SDS011;62036;48.128;16.458;2024-02-04T00:16:54;2.10;;;1.50;;
73729;SDS011;62036;48.128;16.458;2024-02-04T00:19:20;2.05;;;1.63;;
73729;SDS011;62036;48.128;16.458;2024-02-04T00:21:46;2.30;;;1.73;;
73729;SDS011;62036;48.128;16.458;2024-02-04T00:24:12;1.58;;;1.33;;
73729;SDS011;62036;48.128;16.458;2024-02-04T00:26:39;1.40;;;1.27;;
73729;SDS011;62036;48.128;16.458;2024-02-04T00:29:05;3.05;;;1.65;;
73729;SDS011;62036;48.128;16.458;2024-02-04T00:31:31;2.35;;;1.83;;
73729;SDS011;62036;48.128;16.458;2024-02-04T00:33:57;2.42;;;1.60;;
73729;SDS011;62036;48.128;16.458;2024-02-04T00:36:23;2.20;;;2.00;;
73729;SDS011;62036;48.128;16.458;2024-02-04T00:38:49;1.55;;;0.98;;
73729;SDS011;62036;48.128;16.458;2024-02-04T00:41:15;2.20;;;1.70;;
73729;SDS011;62036;48.128;16.458;2024-02-04T00:43:41;2.03;;;1.67;;
73729;SDS011;62036;48.128;16.458;2024-02-04T00:46:07;1.70;;;1.60;;
73729;SDS011;62036;48.128;16.458;2024-02-04T00:48:35;3.05;;;1.55;;
73729;SDS011;62036;48.128;16.458;2024-02-04T00:51:01;1.50;;;1.40;;
73729;SDS011;62036;48.128;16.458;2024-02-04T00:53:27;1.55;;;1.25;;
73729;SDS011;62036;48.128;16.458;2024-02-04T00:55:59;2.15;;;1.67;;
73729;SDS011;62036;48.128;16.458;2024-02-04T00:58:25;1.65;;;1.23;;
73729;SDS011;62036;48.128;16.458;2024-02-04T01:00:51;2.30;;;1.52;;
73729;SDS011;62036;48.128;16.458;2024-02-04T01:03:17;1.88;;;1.33;;
73729;SDS011;62036;48.128;16.458;2024-02-04T01:05:43;2.22;;;1.50;;
73729;SDS011;62036;48.128;16.458;2024-02-04T01:08:09;2.25;;;1.77;;
73729;SDS011;62036;48.128;16.458;2024-02-04T01:10:35;1.95;;;1.40;;
73729;SDS011;62036;48.128;16.458;2024-02-04T01:13:01;1.65;;;1.35;;
73729;SDS011;62036;48.128;16.458;2024-02-04T01:15:27;1.50;;;1.10;;
73729;SDS011;62036;48.128;16.458;2024-02-04T01:17:53;2.30;;;1.40;;
73729;SDS011;62036;48.128;16.458;2024-02-04T01:20:19;1.17;;;0.85;;
73729;SDS011;62036;48.128;16.458;2024-02-04T01:22:45;2.13;;;1.38;;
73729;SDS011;62036;48.128;16.458;2024-02-04T01:25:11;1.80;;;1.20;;
73729;SDS011;62036;48.128;16.458;2024-02-04T01:27:37;1.73;;;1.15;;
73729;SDS011;62036;48.128;16.458;2024-02-04T01:30:04;2.05;;;1.40;;
73729;SDS011;62036;48.128;16.458;2024-02-04T01:32:30;1.75;;;1.65;;
73729;SDS011;62036;48.128;16.458;2024-02-04T01:34:56;1.25;;;1.00;;
73729;SDS011;62036;48.128;16.458;2024-02-04T01:37:22;1.08;;;0.80;;
73729;SDS011;62036;48.128;16.458;2024-02-04T01:39:49;1.02;;;0.88;;
73729;SDS011;62036;48.128;16.458;2024-02-04T01:42:15;2.15;;;1.15;;
73729;SDS011;62036;48.128;16.458;2024-02-04T01:44:41;1.27;;;1.00;;
73729;SDS011;62036;48.128;16.458;2024-02-04T01:47:08;1.30;;;1.20;;
73729;SDS011;62036;48.128;16.458;2024-02-04T01:49:34;2.80;;;1.00;;
73729;SDS011;62036;48.128;16.458;2024-02-04T01:52:00;1.00;;;0.80;;
73729;SDS011;62036;48.128;16.458;2024-02-04T01:54:27;1.50;;;1.40;;
73729;SDS011;62036;48.128;16.458;2024-02-04T01:56:54;1.58;;;1.48;;
73729;SDS011;62036;48.128;16.458;2024-02-04T01:59:20;2.33;;;1.40;;
73729;SDS011;62036;48.128;16.458;2024-02-04T02:01:53;1.90;;;1.20;;
73729;SDS011;62036;48.128;16.458;2024-02-04T02:04:19;1.08;;;0.98;;
73729;SDS011;62036;48.128;16.458;2024-02-04T02:06:45;2.00;;;1.52;;
73729;SDS011;62036;48.128;16.458;2024-02-04T02:09:11;1.65;;;1.55;;
73729;SDS011;62036;48.128;16.458;2024-02-04T02:11:41;1.95;;;1.75;;
73729;SDS011;62036;48.128;16.458;2024-02-04T02:14:09;1.85;;;1.55;;
73729;SDS011;62036;48.128;16.458;2024-02-04T02:16:36;1.90;;;1.75;;
73729;SDS011;62036;48.128;16.458;2024-02-04T02:19:12;1.40;;;1.30;;
73729;SDS011;62036;48.128;16.458;2024-02-04T02:21:47;1.25;;;1.00;;
73729;SDS011;62036;48.128;16.458;2024-02-04T02:24:24;3.08;;;1.88;;
73729;SDS011;62036;48.128;16.458;2024-02-04T02:26:50;2.45;;;1.90;;
73729;SDS011;62036;48.128;16.458;2024-02-04T02:29:18;1.40;;;1.30;;
73729;SDS011;62036;48.128;16.458;2024-02-04T02:31:44;2.67;;;2.40;;
73729;SDS011;62036;48.128;16.458;2024-02-04T02:34:10;2.05;;;1.85;;
73729;SDS011;62036;48.128;16.458;2024-02-04T02:36:40;3.50;;;2.72;;
73729;SDS011;62036;48.128;16.458;2024-02-04T02:39:13;1.70;;;1.50;;
73729;SDS011;62036;48.128;16.458;2024-02-04T02:41:40;2.47;;;2.10;;
73729;SDS011;62036;48.128;16.458;2024-02-04T02:44:08;1.95;;;1.77;;
73729;SDS011;62036;48.128;16.458;2024-02-04T02:46:34;1.63;;;1.50;;
73729;SDS011;62036;48.128;16.458;2024-02-04T02:49:01;2.33;;;2.05;;
73729;SDS011;62036;48.128;16.458;2024-02-04T02:51:27;2.60;;;2.40;;
73729;SDS011;62036;48.128;16.458;2024-02-04T02:53:53;3.17;;;2.42;;
73729;SDS011;62036;48.128;16.458;2024-02-04T02:56:19;4.50;;;1.83;;
73729;SDS011;62036;48.128;16.458;2024-02-04T02:58:45;2.95;;;2.10;;
73729;SDS011;62036;48.128;16.458;2024-02-04T03:01:12;2.60;;;1.45;;
73729;SDS011;62036;48.128;16.458;2024-02-04T03:03:38;2.40;;;1.83;;
73729;SDS011;62036;48.128;16.458;2024-02-04T03:06:04;2.60;;;1.70;;
73729;SDS011;62036;48.128;16.458;2024-02-04T03:08:30;2.72;;;1.83;;
73729;SDS011;62036;48.128;16.458;2024-02-04T03:10:56;1.92;;;1.70;;
73729;SDS011;62036;48.128;16.458;2024-02-04T03:13:22;2.58;;;1.90;;
73729;SDS011;62036;48.128;16.458;2024-02-04T03:15:48;2.40;;;1.52;;
73729;SDS011;62036;48.128;16.458;2024-02-04T03:18:14;1.83;;;1.35;;
73729;SDS011;62036;48.128;16.458;2024-02-04T03:20:40;2.58;;;2.13;;
73729;SDS011;62036;48.128;16.458;2024-02-04T03:23:07;2.30;;;1.90;;
73729;SDS011;62036;48.128;16.458;2024-02-04T03:25:33;3.47;;;2.53;;
73729;SDS011;62036;48.128;16.458;2024-02-04T03:27:59;2.13;;;1.60;;
73729;SDS011;62036;48.128;16.458;2024-02-04T03:30:25;2.28;;;1.80;;
73729;SDS011;62036;48.128;16.458;2024-02-04T03:32:51;3.25;;;1.55;;
73729;SDS011;62036;48.128;16.458;2024-02-04T03:35:17;2.38;;;1.67;;
73729;SDS011;62036;48.128;16.458;2024-02-04T03:37:43;2.45;;;1.45;;
73729;SDS011;62036;48.128;16.458;2024-02-04T03:40:09;1.65;;;1.35;;
73729;SDS011;62036;48.128;16.458;2024-02-04T03:42:35;1.50;;;1.20;;
73729;SDS011;62036;48.128;16.458;2024-02-04T03:45:01;1.45;;;1.35;;
73729;SDS011;62036;48.128;16.458;2024-02-04T03:47:28;2.00;;;1.13;;
73729;SDS011;62036;48.128;16.458;2024-02-04T03:49:54;2.38;;;1.40;;
73729;SDS011;62036;48.128;16.458;2024-02-04T03:52:20;1.38;;;1.13;;
73729;SDS011;62036;48.128;16.458;2024-02-04T03:54:46;2.00;;;1.50;;
73729;SDS011;62036;48.128;16.458;2024-02-04T03:57:12;2.45;;;1.17;;
73729;SDS011;62036;48.128;16.458;2024-02-04T03:59:38;1.95;;;1.27;;
73729;SDS011;62036;48.128;16.458;2024-02-04T04:02:04;2.15;;;1.65;;
73729;SDS011;62036;48.128;16.458;2024-02-04T04:04:30;1.83;;;1.20;;
73729;SDS011;62036;48.128;16.458;2024-02-04T04:06:56;2.10;;;1.95;;
73729;SDS011;62036;48.128;16.458;2024-02-04T04:09:22;2.03;;;1.42;;
73729;SDS011;62036;48.128;16.458;2024-02-04T04:11:49;2.40;;;1.70;;
73729;SDS011;62036;48.128;16.458;2024-02-04T04:14:15;1.98;;;1.58;;
73729;SDS011;62036;48.128;16.458;2024-02-04T04:16:41;2.75;;;1.60;;
73729;SDS011;62036;48.128;16.458;2024-02-04T04:19:07;2.58;;;1.77;;
73729;SDS011;62036;48.128;16.458;2024-02-04T04:21:33;1.65;;;1.48;;
73729;SDS011;62036;48.128;16.458;2024-02-04T04:24:00;1.90;;;1.63;;
73729;SDS011;62036;48.128;16.458;2024-02-04T04:26:27;3.10;;;2.00;;
73729;SDS011;62036;48.128;16.458;2024-02-04T04:28:53;1.60;;;1.38;;
73729;SDS011;62036;48.128;16.458;2024-02-04T04:31:19;2.95;;;1.45;;
73729;SDS011;62036;48.128;16.458;2024-02-04T04:33:45;2.05;;;1.75;;
73729;SDS011;62036;48.128;16.458;2024-02-04T04:36:11;1.70;;;1.45;;
73729;SDS011;62036;48.128;16.458;2024-02-04T04:38:37;2.67;;;2.38;;
73729;SDS011;62036;48.128;16.458;2024-02-04T04:41:03;2.63;;;1.50;;
73729;SDS011;62036;48.128;16.458;2024-02-04T04:43:29;2.22;;;1.52;;
73729;SDS011;62036;48.128;16.458;2024-02-04T04:45:55;1.95;;;1.55;;
73729;SDS011;62036;48.128;16.458;2024-02-04T04:48:22;2.00;;;1.40;;
73729;SDS011;62036;48.128;16.458;2024-02-04T04:50:48;3.78;;;2.42;;
73729;SDS011;62036;48.128;16.458;2024-02-04T04:53:14;1.85;;;1.25;;
73729;SDS011;62036;48.128;16.458;2024-02-04T04:55:40;2.70;;;1.50;;
73729;SDS011;62036;48.128;16.458;2024-02-04T04:58:06;2.58;;;1.60;;
73729;SDS011;62036;48.128;16.458;2024-02-04T05:00:32;2.40;;;1.63;;
73729;SDS011;62036;48.128;16.458;2024-02-04T05:02:58;1.95;;;1.63;;
73729;SDS011;62036;48.128;16.458;2024-02-04T05:05:24;1.77;;;1.55;;
73729;SDS011;62036;48.128;16.458;2024-02-04T05:07:50;1.77;;;1.40;;
73729;SDS011;62036;48.128;16.458;2024-02-04T05:10:16;2.30;;;1.30;;
73729;SDS011;62036;48.128;16.458;2024-02-04T05:12:42;3.47;;;1.95;;
73729;SDS011;62036;48.128;16.458;2024-02-04T05:15:08;2.10;;;1.50;;
73729;SDS011;62036;48.128;16.458;2024-02-04T05:17:34;1.60;;;1.17;;
73729;SDS011;62036;48.128;16.458;2024-02-04T05:20:00;2.53;;;1.13;;
73729;SDS011;62036;48.128;16.458;2024-02-04T05:22:28;3.17;;;1.30;;
73729;SDS011;62036;48.128;16.458;2024-02-04T05:24:54;1.25;;;1.15;;
73729;SDS011;62036;48.128;16.458;2024-02-04T05:27:20;1.60;;;1.50;;
73729;SDS011;62036;48.128;16.458;2024-02-04T05:29:46;2.70;;;1.23;;
73729;SDS011;62036;48.128;16.458;2024-02-04T05:32:12;1.30;;;1.17;;
73729;SDS011;62036;48.128;16.458;2024-02-04T05:34:38;1.02;;;0.93;;
73729;SDS011;62036;48.128;16.458;2024-02-04T05:37:04;1.33;;;1.10;;
73729;SDS011;62036;48.128;16.458;2024-02-04T05:39:30;1.52;;;1.30;;
73729;SDS011;62036;48.128;16.458;2024-02-04T05:41:56;1.60;;;1.20;;
73729;SDS011;62036;48.128;16.458;2024-02-04T05:44:22;1.55;;;1.00;;
73729;SDS011;62036;48.128;16.458;2024-02-04T05:46:48;1.23;;;1.05;;
73729;SDS011;62036;48.128;16.458;2024-02-04T05:49:14;1.60;;;1.50;;
73729;SDS011;62036;48.128;16.458;2024-02-04T05:51:41;2.35;;;1.00;;
73729;SDS011;62036;48.128;16.458;2024-02-04T05:54:07;2.85;;;1.30;;
73729;SDS011;62036;48.128;16.458;2024-02-04T05:56:33;2.95;;;1.05;;
73729;SDS011;62036;48.128;16.458;2024-02-04T05:58:59;1.85;;;1.67;;
73729;SDS011;62036;48.128;16.458;2024-02-04T06:01:25;2.22;;;1.55;;
73729;SDS011;62036;48.128;16.458;2024-02-04T06:03:52;1.33;;;1.08;;
73729;SDS011;62036;48.128;16.458;2024-02-04T06:06:18;1.88;;;1.10;;
73729;SDS011;62036;48.128;16.458;2024-02-04T06:08:48;1.67;;;1.52;;
73729;SDS011;62036;48.128;16.458;2024-02-04T06:11:14;2.67;;;1.08;;
73729;SDS011;62036;48.128;16.458;2024-02-04T06:13:41;2.30;;;1.23;;
73729;SDS011;62036;48.128;16.458;2024-02-04T06:16:07;2.10;;;1.52;;
73729;SDS011;62036;48.128;16.458;2024-02-04T06:18:36;1.70;;;1.60;;
73729;SDS011;62036;48.128;16.458;2024-02-04T06:21:03;1.65;;;1.23;;
73729;SDS011;62036;48.128;16.458;2024-02-04T06:23:29;2.22;;;1.50;;
73729;SDS011;62036;48.128;16.458;2024-02-04T06:25:55;2.53;;;1.75;;
73729;SDS011;62036;48.128;16.458;2024-02-04T06:28:21;1.52;;;1.40;;
73729;SDS011;62036;48.128;16.458;2024-02-04T06:30:48;1.65;;;1.20;;
73729;SDS011;62036;48.128;16.458;2024-02-04T06:33:14;1.98;;;1.63;;
73729;SDS011;62036;48.128;16.458;2024-02-04T06:35:40;1.70;;;1.23;;
73729;SDS011;62036;48.128;16.458;2024-02-04T06:38:06;1.67;;;1.20;;
73729;SDS011;62036;48.128;16.458;2024-02-04T06:40:32;1.90;;;1.65;;
73729;SDS011;62036;48.128;16.458;2024-02-04T06:42:58;1.23;;;1.13;;
73729;SDS011;62036;48.128;16.458;2024-02-04T06:45:24;2.03;;;1.33;;
73729;SDS011;62036;48.128;16.458;2024-02-04T06:47:50;1.40;;;1.08;;
73729;SDS011;62036;48.128;16.458;2024-02-04T06:50:16;1.70;;;1.20;;
73729;SDS011;62036;48.128;16.458;2024-02-04T06:52:43;1.45;;;1.33;;
73729;SDS011;62036;48.128;16.458;2024-02-04T06:55:10;1.45;;;1.27;;
73729;SDS011;62036;48.128;16.458;2024-02-04T06:57:36;2.25;;;1.50;;
73729;SDS011;62036;48.128;16.458;2024-02-04T07:00:02;1.90;;;1.17;;
73729;SDS011;62036;48.128;16.458;2024-02-04T07:02:33;1.73;;;1.40;;
73729;SDS011;62036;48.128;16.458;2024-02-04T07:04:59;1.00;;;0.80;;
73729;SDS011;62036;48.128;16.458;2024-02-04T07:07:25;1.70;;;1.50;;
73729;SDS011;62036;48.128;16.458;2024-02-04T07:09:51;1.10;;;1.00;;
73729;SDS011;62036;48.128;16.458;2024-02-04T07:12:17;2.83;;;1.42;;
73729;SDS011;62036;48.128;16.458;2024-02-04T07:14:43;2.42;;;1.10;;
73729;SDS011;62036;48.128;16.458;2024-02-04T07:17:10;1.27;;;1.08;;
73729;SDS011;62036;48.128;16.458;2024-02-04T07:19:37;1.52;;;1.23;;
73729;SDS011;62036;48.128;16.458;2024-02-04T07:22:03;1.50;;;1.10;;
73729;SDS011;62036;48.128;16.458;2024-02-04T07:24:29;1.25;;;1.13;;
73729;SDS011;62036;48.128;16.458;2024-02-04T07:26:55;1.42;;;1.05;;
73729;SDS011;62036;48.128;16.458;2024-02-04T07:29:21;1.35;;;1.08;;
73729;SDS011;62036;48.128;16.458;2024-02-04T07:31:47;1.10;;;0.70;;
73729;SDS011;62036;48.128;16.458;2024-02-04T07:34:13;1.85;;;0.82;;
73729;SDS011;62036;48.128;16.458;2024-02-04T07:36:39;1.27;;;0.88;;
73729;SDS011;62036;48.128;16.458;2024-02-04T07:39:05;0.80;;;0.80;;
73729;SDS011;62036;48.128;16.458;2024-02-04T07:41:31;1.80;;;1.05;;
73729;SDS011;62036;48.128;16.458;2024-02-04T07:43:57;1.98;;;1.20;;
73729;SDS011;62036;48.128;16.458;2024-02-04T07:46:23;1.58;;;1.45;;
73729;SDS011;62036;48.128;16.458;2024-02-04T07:48:49;1.67;;;1.23;;
73729;SDS011;62036;48.128;16.458;2024-02-04T07:51:15;1.35;;;1.08;;
73729;SDS011;62036;48.128;16.458;2024-02-04T07:53:42;1.58;;;0.90;;
73729;SDS011;62036;48.128;16.458;2024-02-04T07:56:08;1.42;;;0.95;;
73729;SDS011;62036;48.128;16.458;2024-02-04T07:58:35;1.48;;;1.17;;
73729;SDS011;62036;48.128;16.458;2024-02-04T08:01:02;2.78;;;1.38;;
73729;SDS011;62036;48.128;16.458;2024-02-04T08:03:28;1.90;;;1.13;;
73729;SDS011;62036;48.128;16.458;2024-02-04T08:05:54;1.05;;;0.85;;
73729;SDS011;62036;48.128;16.458;2024-02-04T08:08:20;0.90;;;0.88;;
73729;SDS011;62036;48.128;16.458;2024-02-04T08:10:46;2.08;;;1.35;;
73729;SDS011;62036;48.128;16.458;2024-02-04T08:13:12;0.90;;;0.75;;
73729;SDS011;62036;48.128;16.458;2024-02-04T08:15:39;0.73;;;0.52;;
73729;SDS011;62036;48.128;16.458;2024-02-04T08:18:05;1.00;;;0.80;;
73729;SDS011;62036;48.128;16.458;2024-02-04T08:20:31;1.17;;;0.70;;
73729;SDS011;62036;48.128;16.458;2024-02-04T08:22:57;1.10;;;1.00;;
73729;SDS011;62036;48.128;16.458;2024-02-04T08:25:23;0.85;;;0.65;;
73729;SDS011;62036;48.128;16.458;2024-02-04T08:27:49;1.08;;;0.60;;
73729;SDS011;62036;48.128;16.458;2024-02-04T08:30:15;1.88;;;1.00;;
73729;SDS011;62036;48.128;16.458;2024-02-04T08:32:44;0.50;;;0.50;;
73729;SDS011;62036;48.128;16.458;2024-02-04T08:35:10;0.80;;;0.70;;
73729;SDS011;62036;48.128;16.458;2024-02-04T08:37:36;0.60;;;0.60;;
73729;SDS011;62036;48.128;16.458;2024-02-04T08:40:03;0.77;;;0.60;;
73729;SDS011;62036;48.128;16.458;2024-02-04T08:42:29;0.93;;;0.70;;
73729;SDS011;62036;48.128;16.458;2024-02-04T08:44:55;0.40;;;0.30;;
73729;SDS011;62036;48.128;16.458;2024-02-04T08:47:21;0.40;;;0.35;;
73729;SDS011;62036;48.128;16.458;2024-02-04T08:49:47;0.38;;;0.35;;
73729;SDS011;62036;48.128;16.458;2024-02-04T08:52:13;0.20;;;0.20;;
73729;SDS011;62036;48.128;16.458;2024-02-04T08:54:39;0.70;;;0.60;;
73729;SDS011;62036;48.128;16.458;2024-02-04T08:57:05;0.98;;;0.40;;
73729;SDS011;62036;48.128;16.458;2024-02-04T08:59:32;0.80;;;0.43;;
73729;SDS011;62036;48.128;16.458;2024-02-04T09:01:58;0.35;;;0.35;;
73729;SDS011;62036;48.128;16.458;2024-02-04T09:04:24;0.22;;;0.20;;
73729;SDS011;62036;48.128;16.458;2024-02-04T09:06:50;0.30;;;0.28;;
73729;SDS011;62036;48.128;16.458;2024-02-04T09:09:16;0.47;;;0.22;;
73729;SDS011;62036;48.128;16.458;2024-02-04T09:11:42;0.60;;;0.30;;
73729;SDS011;62036;48.128;16.458;2024-02-04T09:14:08;2.13;;;0.95;;
73729;SDS011;62036;48.128;16.458;2024-02-04T09:16:36;0.30;;;0.20;;
73729;SDS011;62036;48.128;16.458;2024-02-04T09:19:02;1.05;;;0.30;;
73729;SDS011;62036;48.128;16.458;2024-02-04T09:21:29;0.57;;;0.50;;
73729;SDS011;62036;48.128;16.458;2024-02-04T09:23:55;0.43;;;0.40;;
73729;SDS011;62036;48.128;16.458;2024-02-04T09:26:22;2.22;;;0.52;;
73729;SDS011;62036;48.128;16.458;2024-02-04T09:28:48;0.40;;;0.20;;
73729;SDS011;62036;48.128;16.458;2024-02-04T09:31:14;0.65;;;0.30;;
73729;SDS011;62036;48.128;16.458;2024-02-04T09:33:41;3.65;;;1.50;;
73729;SDS011;62036;48.128;16.458;2024-02-04T09:36:07;2.45;;;1.25;;
73729;SDS011;62036;48.128;16.458;2024-02-04T09:38:33;0.70;;;0.50;;
73729;SDS011;62036;48.128;16.458;2024-02-04T09:41:00;1.45;;;0.82;;
73729;SDS011;62036;48.128;16.458;2024-02-04T09:43:29;1.00;;;0.50;;
73729;SDS011;62036;48.128;16.458;2024-02-04T09:45:56;0.47;;;0.45;;
73729;SDS011;62036;48.128;16.458;2024-02-04T09:48:22;0.40;;;0.40;;
73729;SDS011;62036;48.128;16.458;2024-02-04T09:50:50;0.38;;;0.38;;
73729;SDS011;62036;48.128;16.458;2024-02-04T09:53:18;0.75;;;0.50;;
73729;SDS011;62036;48.128;16.458;2024-02-04T09:55:48;0.80;;;0.40;;
73729;SDS011;62036;48.128;16.458;2024-02-04T09:58:15;0.30;;;0.30;;
73729;SDS011;62036;48.128;16.458;2024-02-04T10:00:41;0.57;;;0.40;;
73729;SDS011;62036;48.128;16.458;2024-02-04T10:03:09;0.40;;;0.40;;
73729;SDS011;62036;48.128;16.458;2024-02-04T10:05:35;0.28;;;0.20;;
73729;SDS011;62036;48.128;16.458;2024-02-04T10:08:01;0.40;;;0.30;;
73729;SDS011;62036;48.128;16.458;2024-02-04T10:10:27;0.43;;;0.30;;
73729;SDS011;62036;48.128;16.458;2024-02-04T10:12:55;0.20;;;0.20;;
73729;SDS011;62036;48.128;16.458;2024-02-04T10:15:21;0.60;;;0.50;;
73729;SDS011;62036;48.128;16.458;2024-02-04T10:17:47;0.30;;;0.30;;
73729;SDS011;62036;48.128;16.458;2024-02-04T10:20:13;0.35;;;0.35;;
73729;SDS011;62036;48.128;16.458;2024-02-04T10:22:39;0.38;;;0.20;;
73729;SDS011;62036;48.128;16.458;2024-02-04T10:25:09;0.20;;;0.20;;
73729;SDS011;62036;48.128;16.458;2024-02-04T10:27:37;0.55;;;0.20;;
73729;SDS011;62036;48.128;16.458;2024-02-04T10:30:04;0.20;;;0.20;;
73729;SDS011;62036;48.128;16.458;2024-02-04T10:32:30;0.20;;;0.20;;
73729;SDS011;62036;48.128;16.458;2024-02-04T10:34:57;0.73;;;0.30;;
73729;SDS011;62036;48.128;16.458;2024-02-04T10:37:24;0.30;;;0.30;;
73729;SDS011;62036;48.128;16.458;2024-02-04T10:39:50;0.20;;;0.17;;
73729;SDS011;62036;48.128;16.458;2024-02-04T10:42:16;0.20;;;0.20;;
73729;SDS011;62036;48.128;16.458;2024-02-04T10:44:43;0.13;;;0.00;;
73729;SDS011;62036;48.128;16.458;2024-02-04T10:47:10;0.98;;;0.13;;
73729;SDS011;62036;48.128;16.458;2024-02-04T10:49:36;0.00;;;0.00;;
73729;SDS011;62036;48.128;16.458;2024-02-04T10:52:06;0.43;;;0.40;;
73729;SDS011;62036;48.128;16.458;2024-02-04T10:54:33;0.10;;;0.10;;
73729;SDS011;62036;48.128;16.458;2024-02-04T10:57:05;0.28;;;0.10;;
73729;SDS011;62036;48.128;16.458;2024-02-04T10:59:31;0.25;;;0.25;;
73729;SDS011;62036;48.128;16.458;2024-02-04T11:01:58;1.77;;;0.38;;
73729;SDS011;62036;48.128;16.458;2024-02-04T11:04:24;0.20;;;0.20;;
73729;SDS011;62036;48.128;16.458;2024-02-04T11:06:50;0.40;;;0.10;;
73729;SDS011;62036;48.128;16.458;2024-02-04T11:09:18;0.30;;;0.30;;
73729;SDS011;62036;48.128;16.458;2024-02-04T11:11:44;0.20;;;0.20;;
73729;SDS011;62036;48.128;16.458;2024-02-04T11:14:12;0.20;;;0.20;;
73729;SDS011;62036;48.128;16.458;2024-02-04T11:19:20;0.22;;;0.10;;
73729;SDS011;62036;48.128;16.458;2024-02-04T11:24:32;0.45;;;0.20;;
73729;SDS011;62036;48.128;16.458;2024-02-04T11:27:02;0.20;;;0.20;;
73729;SDS011;62036;48.128;16.458;2024-02-04T11:29:28;0.05;;;0.05;;
73729;SDS011;62036;48.128;16.458;2024-02-04T11:31:54;0.40;;;0.40;;
73729;SDS011;62036;48.128;16.458;2024-02-04T11:34:20;0.20;;;0.10;;
73729;SDS011;62036;48.128;16.458;2024-02-04T11:36:46;0.75;;;0.40;;
73729;SDS011;62036;48.128;16.458;2024-02-04T11:39:13;0.20;;;0.20;;
73729;SDS011;62036;48.128;16.458;2024-02-04T11:41:47;0.05;;;0.03;;
73729;SDS011;62036;48.128;16.458;2024-02-04T11:44:19;0.20;;;0.20;;
73729;SDS011;62036;48.128;16.458;2024-02-04T11:46:46;0.20;;;0.20;;
73729;SDS011;62036;48.128;16.458;2024-02-04T11:49:16;0.52;;;0.30;;
73729;SDS011;62036;48.128;16.458;2024-02-04T11:51:50;0.10;;;0.10;;
73729;SDS011;62036;48.128;16.458;2024-02-04T11:54:17;0.30;;;0.20;;
73729;SDS011;62036;48.128;16.458;2024-02-04T11:56:50;0.38;;;0.30;;
73729;SDS011;62036;48.128;16.458;2024-02-04T11:59:22;0.40;;;0.40;;
73729;SDS011;62036;48.128;16.458;2024-02-04T12:01:49;0.43;;;0.38;;
73729;SDS011;62036;48.128;16.458;2024-02-04T12:04:16;0.88;;;0.32;;
73729;SDS011;62036;48.128;16.458;2024-02-04T12:06:42;0.30;;;0.30;;
73729;SDS011;62036;48.128;16.458;2024-02-04T12:09:09;0.65;;;0.20;;
73729;SDS011;62036;48.128;16.458;2024-02-04T12:11:35;0.93;;;0.30;;
73729;SDS011;62036;48.128;16.458;2024-02-04T12:14:03;0.88;;;0.20;;
73729;SDS011;62036;48.128;16.458;2024-02-04T12:16:30;0.63;;;0.63;;
73729;SDS011;62036;48.128;16.458;2024-02-04T12:18:57;0.13;;;0.13;;
73729;SDS011;62036;48.128;16.458;2024-02-04T12:21:24;0.32;;;0.30;;
73729;SDS011;62036;48.128;16.458;2024-02-04T12:23:50;0.40;;;0.40;;
73729;SDS011;62036;48.128;16.458;2024-02-04T12:26:17;0.17;;;0.17;;
73729;SDS011;62036;48.128;16.458;2024-02-04T12:28:43;0.55;;;0.30;;
73729;SDS011;62036;48.128;16.458;2024-02-04T12:33:54;1.10;;;0.70;;
73729;SDS011;62036;48.128;16.458;2024-02-04T12:36:22;0.35;;;0.20;;
73729;SDS011;62036;48.128;16.458;2024-02-04T12:38:55;1.20;;;0.30;;
73729;SDS011;62036;48.128;16.458;2024-02-04T12:41:25;0.30;;;0.30;;
73729;SDS011;62036;48.128;16.458;2024-02-04T12:43:57;1.15;;;0.30;;
73729;SDS011;62036;48.128;16.458;2024-02-04T12:46:24;0.65;;;0.30;;
73729;SDS011;62036;48.128;16.458;2024-02-04T12:54:04;0.10;;;0.10;;
73729;SDS011;62036;48.128;16.458;2024-02-04T12:56:52;0.82;;;0.63;;
73729;SDS011;62036;48.128;16.458;2024-02-04T12:59:30;0.50;;;0.50;;
73729;SDS011;62036;48.128;16.458;2024-02-04T13:04:22;0.22;;;0.22;;
73729;SDS011;62036;48.128;16.458;2024-02-04T13:06:49;0.47;;;0.40;;
73729;SDS011;62036;48.128;16.458;2024-02-04T13:09:15;0.65;;;0.65;;
73729;SDS011;62036;48.128;16.458;2024-02-04T13:11:45;0.70;;;0.45;;
73729;SDS011;62036;48.128;16.458;2024-02-04T13:14:11;0.98;;;0.70;;
73729;SDS011;62036;48.128;16.458;2024-02-04T13:16:37;0.40;;;0.30;;
73729;SDS011;62036;48.128;16.458;2024-02-04T13:19:04;0.98;;;0.60;;
73729;SDS011;62036;48.128;16.458;2024-02-04T13:21:32;0.70;;;0.55;;
73729;SDS011;62036;48.128;16.458;2024-02-04T13:23:58;0.80;;;0.80;;
73729;SDS011;62036;48.128;16.458;2024-02-04T13:26:24;0.60;;;0.60;;
73729;SDS011;62036;48.128;16.458;2024-02-04T13:28:50;0.98;;;0.73;;
73729;SDS011;62036;48.128;16.458;2024-02-04T13:31:16;0.80;;;0.55;;
73729;SDS011;62036;48.128;16.458;2024-02-04T13:33:43;1.48;;;1.17;;
73729;SDS011;62036;48.128;16.458;2024-02-04T13:36:09;1.45;;;0.70;;
73729;SDS011;62036;48.128;16.458;2024-02-04T13:38:35;0.60;;;0.60;;
73729;SDS011;62036;48.128;16.458;2024-02-04T13:41:02;3.47;;;2.28;;
73729;SDS011;62036;48.128;16.458;2024-02-04T13:43:31;0.65;;;0.40;;
73729;SDS011;62036;48.128;16.458;2024-02-04T13:45:57;0.88;;;0.50;;
73729;SDS011;62036;48.128;16.458;2024-02-04T13:48:23;1.30;;;0.65;;
73729;SDS011;62036;48.128;16.458;2024-02-04T13:50:51;1.77;;;0.65;;
73729;SDS011;62036;48.128;16.458;2024-02-04T13:53:19;2.92;;;0.70;;
73729;SDS011;62036;48.128;16.458;2024-02-04T13:55:45;0.82;;;0.70;;
73729;SDS011;62036;48.128;16.458;2024-02-04T13:58:11;0.80;;;0.80;;
73729;SDS011;62036;48.128;16.458;2024-02-04T14:00:37;2.03;;;0.80;;
73729;SDS011;62036;48.128;16.458;2024-02-04T14:03:03;2.35;;;0.80;;
73729;SDS011;62036;48.128;16.458;2024-02-04T14:05:30;0.60;;;0.43;;
73729;SDS011;62036;48.128;16.458;2024-02-04T14:07:57;1.60;;;0.82;;
73729;SDS011;62036;48.128;16.458;2024-02-04T14:10:23;2.67;;;0.82;;
73729;SDS011;62036;48.128;16.458;2024-02-04T14:12:49;1.25;;;0.80;;
73729;SDS011;62036;48.128;16.458;2024-02-04T14:15:15;1.80;;;0.90;;
73729;SDS011;62036;48.128;16.458;2024-02-04T14:17:41;1.67;;;1.13;;
73729;SDS011;62036;48.128;16.458;2024-02-04T14:20:08;1.70;;;0.60;;
73729;SDS011;62036;48.128;16.458;2024-02-04T14:22:34;1.40;;;0.90;;
73729;SDS011;62036;48.128;16.458;2024-02-04T14:25:00;0.77;;;0.77;;
73729;SDS011;62036;48.128;16.458;2024-02-04T14:27:26;1.02;;;0.80;;
73729;SDS011;62036;48.128;16.458;2024-02-04T14:29:53;0.70;;;0.70;;
73729;SDS011;62036;48.128;16.458;2024-02-04T14:32:19;1.25;;;0.90;;
73729;SDS011;62036;48.128;16.458;2024-02-04T14:34:46;1.33;;;0.50;;
73729;SDS011;62036;48.128;16.458;2024-02-04T14:37:12;1.40;;;1.10;;
73729;SDS011;62036;48.128;16.458;2024-02-04T14:39:39;1.42;;;0.70;;
73729;SDS011;62036;48.128;16.458;2024-02-04T14:42:06;0.88;;;0.88;;
73729;SDS011;62036;48.128;16.458;2024-02-04T14:44:34;0.70;;;0.70;;
73729;SDS011;62036;48.128;16.458;2024-02-04T14:47:00;2.97;;;0.60;;